sensor_id;sensor_type;location;lat;lon;timestamp;temperature;humidity
5134;DHT22;2585;48.696;10.066;2023-07-29T00:01:33;15.20;93.40
5134;DHT22;2585;48.696;10.066;2023-07-29T00:04:00;15.20;93.40
5134;DHT22;2585;48.696;10.066;2023-07-29T00:06:27;15.20;93.40
5134;DHT22;2585;48.696;10.066;2023-07-29T00:08:54;15.10;93.30
5134;DHT22;2585;48.696;10.066;2023-07-29T00:11:21;15.10;93.30
5134;DHT22;2585;48.696;10.066;2023-07-29T00:13:48;15.10;93.30
5134;DHT22;2585;48.696;10.066;2023-07-29T00:16:17;15.10;93.30
5134;DHT22;2585;48.696;10.066;2023-07-29T00:18:44;15.10;93.30
5134;DHT22;2585;48.696;10.066;2023-07-29T00:21:11;15.00;93.30
5134;DHT22;2585;48.696;10.066;2023-07-29T00:23:38;15.00;93.30
5134;DHT22;2585;48.696;10.066;2023-07-29T00:26:04;14.90;93.30
5134;DHT22;2585;48.696;10.066;2023-07-29T00:28:31;14.90;93.30
5134;DHT22;2585;48.696;10.066;2023-07-29T00:30:58;14.90;93.30
5134;DHT22;2585;48.696;10.066;2023-07-29T00:33:25;14.80;93.30
5134;DHT22;2585;48.696;10.066;2023-07-29T00:35:52;14.80;93.30
5134;DHT22;2585;48.696;10.066;2023-07-29T00:38:19;14.70;93.20
5134;DHT22;2585;48.696;10.066;2023-07-29T00:40:46;14.70;93.20
5134;DHT22;2585;48.696;10.066;2023-07-29T00:43:12;14.70;93.20
5134;DHT22;2585;48.696;10.066;2023-07-29T00:45:42;14.70;93.20
5134;DHT22;2585;48.696;10.066;2023-07-29T00:48:09;14.70;93.20
5134;DHT22;2585;48.696;10.066;2023-07-29T00:50:37;14.70;93.20
5134;DHT22;2585;48.696;10.066;2023-07-29T00:53:04;14.60;93.20
5134;DHT22;2585;48.696;10.066;2023-07-29T00:55:31;14.70;93.20
5134;DHT22;2585;48.696;10.066;2023-07-29T00:57:57;14.60;93.20
5134;DHT22;2585;48.696;10.066;2023-07-29T01:00:25;14.50;93.20
5134;DHT22;2585;48.696;10.066;2023-07-29T01:02:52;14.40;93.20
5134;DHT22;2585;48.696;10.066;2023-07-29T01:05:21;14.40;93.20
5134;DHT22;2585;48.696;10.066;2023-07-29T01:08:55;14.40;93.20
5134;DHT22;2585;48.696;10.066;2023-07-29T01:16:34;14.40;93.20
5134;DHT22;2585;48.696;10.066;2023-07-29T01:19:05;14.50;93.20
5134;DHT22;2585;48.696;10.066;2023-07-29T01:21:35;14.50;93.20
5134;DHT22;2585;48.696;10.066;2023-07-29T01:24:03;14.50;93.20
5134;DHT22;2585;48.696;10.066;2023-07-29T01:26:29;14.50;93.20
5134;DHT22;2585;48.696;10.066;2023-07-29T01:28:57;14.50;93.20
5134;DHT22;2585;48.696;10.066;2023-07-29T01:31:33;14.50;93.20
5134;DHT22;2585;48.696;10.066;2023-07-29T01:34:23;14.50;93.20
5134;DHT22;2585;48.696;10.066;2023-07-29T01:36:54;14.60;93.20
5134;DHT22;2585;48.696;10.066;2023-07-29T01:39:29;14.60;93.20
5134;DHT22;2585;48.696;10.066;2023-07-29T01:41:59;14.60;93.20
5134;DHT22;2585;48.696;10.066;2023-07-29T01:44:26;14.60;93.20
5134;DHT22;2585;48.696;10.066;2023-07-29T01:46:55;14.60;93.20
5134;DHT22;2585;48.696;10.066;2023-07-29T01:49:22;14.60;93.20
5134;DHT22;2585;48.696;10.066;2023-07-29T01:51:49;14.60;93.20
5134;DHT22;2585;48.696;10.066;2023-07-29T01:54:16;14.60;93.20
5134;DHT22;2585;48.696;10.066;2023-07-29T01:56:43;14.60;93.20
5134;DHT22;2585;48.696;10.066;2023-07-29T01:59:10;14.50;93.20
5134;DHT22;2585;48.696;10.066;2023-07-29T02:01:36;14.60;93.20
5134;DHT22;2585;48.696;10.066;2023-07-29T02:04:03;14.50;93.20
5134;DHT22;2585;48.696;10.066;2023-07-29T02:06:30;14.50;93.20
5134;DHT22;2585;48.696;10.066;2023-07-29T02:08:57;14.50;93.20
5134;DHT22;2585;48.696;10.066;2023-07-29T02:11:24;14.50;93.20
5134;DHT22;2585;48.696;10.066;2023-07-29T02:13:55;14.50;93.20
5134;DHT22;2585;48.696;10.066;2023-07-29T02:16:22;14.50;93.20
5134;DHT22;2585;48.696;10.066;2023-07-29T02:18:52;14.50;93.20
5134;DHT22;2585;48.696;10.066;2023-07-29T02:21:22;14.50;93.20
5134;DHT22;2585;48.696;10.066;2023-07-29T02:23:48;14.50;93.20
5134;DHT22;2585;48.696;10.066;2023-07-29T02:26:16;14.60;93.20
5134;DHT22;2585;48.696;10.066;2023-07-29T02:28:44;14.60;93.20
5134;DHT22;2585;48.696;10.066;2023-07-29T02:31:16;14.60;93.20
5134;DHT22;2585;48.696;10.066;2023-07-29T02:33:44;14.60;93.20
5134;DHT22;2585;48.696;10.066;2023-07-29T02:36:12;14.70;93.20
5134;DHT22;2585;48.696;10.066;2023-07-29T02:38:40;14.70;93.20
5134;DHT22;2585;48.696;10.066;2023-07-29T02:41:08;14.70;93.20
5134;DHT22;2585;48.696;10.066;2023-07-29T02:43:36;14.70;93.30
5134;DHT22;2585;48.696;10.066;2023-07-29T02:46:03;14.70;93.30
5134;DHT22;2585;48.696;10.066;2023-07-29T02:48:31;14.70;93.30
5134;DHT22;2585;48.696;10.066;2023-07-29T02:50:57;14.60;93.20
5134;DHT22;2585;48.696;10.066;2023-07-29T02:53:25;14.60;93.20
5134;DHT22;2585;48.696;10.066;2023-07-29T02:55:51;14.50;93.20
5134;DHT22;2585;48.696;10.066;2023-07-29T02:58:18;14.50;93.20
5134;DHT22;2585;48.696;10.066;2023-07-29T03:00:45;14.40;93.20
5134;DHT22;2585;48.696;10.066;2023-07-29T03:03:14;14.50;93.20
5134;DHT22;2585;48.696;10.066;2023-07-29T03:05:41;14.40;93.20
5134;DHT22;2585;48.696;10.066;2023-07-29T03:08:08;14.30;93.10
5134;DHT22;2585;48.696;10.066;2023-07-29T03:10:35;14.30;93.10
5134;DHT22;2585;48.696;10.066;2023-07-29T03:13:02;14.20;93.10
5134;DHT22;2585;48.696;10.066;2023-07-29T03:15:30;14.10;93.10
5134;DHT22;2585;48.696;10.066;2023-07-29T03:17:56;14.10;93.10
5134;DHT22;2585;48.696;10.066;2023-07-29T03:20:23;14.10;93.10
5134;DHT22;2585;48.696;10.066;2023-07-29T03:22:50;14.00;93.10
5134;DHT22;2585;48.696;10.066;2023-07-29T03:25:17;13.90;93.00
5134;DHT22;2585;48.696;10.066;2023-07-29T03:27:44;13.90;93.00
5134;DHT22;2585;48.696;10.066;2023-07-29T03:30:11;13.90;93.00
5134;DHT22;2585;48.696;10.066;2023-07-29T03:32:42;13.80;93.00
5134;DHT22;2585;48.696;10.066;2023-07-29T03:35:09;13.80;93.00
5134;DHT22;2585;48.696;10.066;2023-07-29T03:37:36;13.80;93.00
5134;DHT22;2585;48.696;10.066;2023-07-29T03:40:04;13.70;93.00
5134;DHT22;2585;48.696;10.066;2023-07-29T03:42:31;13.70;93.00
5134;DHT22;2585;48.696;10.066;2023-07-29T03:44:58;13.70;93.00
5134;DHT22;2585;48.696;10.066;2023-07-29T03:47:24;13.70;93.00
5134;DHT22;2585;48.696;10.066;2023-07-29T03:49:51;13.70;93.00
5134;DHT22;2585;48.696;10.066;2023-07-29T03:52:18;13.70;93.00
5134;DHT22;2585;48.696;10.066;2023-07-29T03:54:45;13.80;93.00
5134;DHT22;2585;48.696;10.066;2023-07-29T03:57:12;13.80;93.00
5134;DHT22;2585;48.696;10.066;2023-07-29T03:59:39;13.90;93.00
5134;DHT22;2585;48.696;10.066;2023-07-29T04:02:05;14.00;93.10
5134;DHT22;2585;48.696;10.066;2023-07-29T04:04:32;14.00;93.10
5134;DHT22;2585;48.696;10.066;2023-07-29T04:06:59;14.10;93.10
5134;DHT22;2585;48.696;10.066;2023-07-29T04:09:26;14.10;93.10
5134;DHT22;2585;48.696;10.066;2023-07-29T04:11:53;14.10;93.10
5134;DHT22;2585;48.696;10.066;2023-07-29T04:14:20;14.20;93.10
5134;DHT22;2585;48.696;10.066;2023-07-29T04:16:47;14.20;93.10
5134;DHT22;2585;48.696;10.066;2023-07-29T04:19:15;14.30;93.20
5134;DHT22;2585;48.696;10.066;2023-07-29T04:21:42;14.30;93.20
5134;DHT22;2585;48.696;10.066;2023-07-29T04:24:09;14.40;93.20
5134;DHT22;2585;48.696;10.066;2023-07-29T04:26:36;14.40;93.20
5134;DHT22;2585;48.696;10.066;2023-07-29T04:29:03;14.40;93.20
5134;DHT22;2585;48.696;10.066;2023-07-29T04:31:30;14.50;93.20
5134;DHT22;2585;48.696;10.066;2023-07-29T04:33:57;14.50;93.20
5134;DHT22;2585;48.696;10.066;2023-07-29T04:36:23;14.50;93.20
5134;DHT22;2585;48.696;10.066;2023-07-29T04:38:50;14.50;93.20
5134;DHT22;2585;48.696;10.066;2023-07-29T04:41:17;14.50;93.20
5134;DHT22;2585;48.696;10.066;2023-07-29T04:43:44;14.60;93.20
5134;DHT22;2585;48.696;10.066;2023-07-29T04:46:11;14.50;93.20
5134;DHT22;2585;48.696;10.066;2023-07-29T04:48:38;14.50;93.20
5134;DHT22;2585;48.696;10.066;2023-07-29T04:51:05;14.50;93.20
5134;DHT22;2585;48.696;10.066;2023-07-29T04:53:31;14.60;93.20
5134;DHT22;2585;48.696;10.066;2023-07-29T04:55:59;14.60;93.20
5134;DHT22;2585;48.696;10.066;2023-07-29T04:58:26;14.60;93.20
5134;DHT22;2585;48.696;10.066;2023-07-29T05:00:55;14.60;93.20
5134;DHT22;2585;48.696;10.066;2023-07-29T05:03:22;14.70;93.30
5134;DHT22;2585;48.696;10.066;2023-07-29T05:05:49;14.70;93.30
5134;DHT22;2585;48.696;10.066;2023-07-29T05:08:18;14.70;93.30
5134;DHT22;2585;48.696;10.066;2023-07-29T05:10:48;14.80;93.30
5134;DHT22;2585;48.696;10.066;2023-07-29T05:13:17;14.80;93.30
5134;DHT22;2585;48.696;10.066;2023-07-29T05:15:44;14.90;93.30
5134;DHT22;2585;48.696;10.066;2023-07-29T05:18:11;14.90;93.30
5134;DHT22;2585;48.696;10.066;2023-07-29T05:20:38;15.00;93.30
5134;DHT22;2585;48.696;10.066;2023-07-29T05:23:05;14.90;93.30
5134;DHT22;2585;48.696;10.066;2023-07-29T05:25:32;14.90;93.30
5134;DHT22;2585;48.696;10.066;2023-07-29T05:28:01;15.10;93.40
5134;DHT22;2585;48.696;10.066;2023-07-29T05:30:30;15.10;93.40
5134;DHT22;2585;48.696;10.066;2023-07-29T05:33:00;15.10;93.40
5134;DHT22;2585;48.696;10.066;2023-07-29T05:35:27;15.10;93.40
5134;DHT22;2585;48.696;10.066;2023-07-29T05:37:54;15.20;93.40
5134;DHT22;2585;48.696;10.066;2023-07-29T05:40:21;15.30;93.40
5134;DHT22;2585;48.696;10.066;2023-07-29T05:42:48;15.40;93.40
5134;DHT22;2585;48.696;10.066;2023-07-29T05:45:15;15.50;93.50
5134;DHT22;2585;48.696;10.066;2023-07-29T05:47:42;15.60;93.50
5134;DHT22;2585;48.696;10.066;2023-07-29T05:50:09;15.60;93.50
5134;DHT22;2585;48.696;10.066;2023-07-29T05:52:37;15.70;93.50
5134;DHT22;2585;48.696;10.066;2023-07-29T05:55:04;15.70;93.50
5134;DHT22;2585;48.696;10.066;2023-07-29T05:57:31;15.60;93.50
5134;DHT22;2585;48.696;10.066;2023-07-29T05:59:57;15.60;93.50
5134;DHT22;2585;48.696;10.066;2023-07-29T06:02:24;15.60;93.50
5134;DHT22;2585;48.696;10.066;2023-07-29T06:04:51;15.70;93.50
5134;DHT22;2585;48.696;10.066;2023-07-29T06:07:18;15.70;93.50
5134;DHT22;2585;48.696;10.066;2023-07-29T06:09:45;15.80;93.50
5134;DHT22;2585;48.696;10.066;2023-07-29T06:12:12;15.80;93.60
5134;DHT22;2585;48.696;10.066;2023-07-29T06:14:39;15.80;93.60
5134;DHT22;2585;48.696;10.066;2023-07-29T06:17:06;15.80;93.60
5134;DHT22;2585;48.696;10.066;2023-07-29T06:19:33;15.80;93.60
5134;DHT22;2585;48.696;10.066;2023-07-29T06:22:00;15.60;93.50
5134;DHT22;2585;48.696;10.066;2023-07-29T06:24:28;15.80;93.50
5134;DHT22;2585;48.696;10.066;2023-07-29T06:26:55;15.90;93.60
5134;DHT22;2585;48.696;10.066;2023-07-29T06:29:21;15.80;93.50
5134;DHT22;2585;48.696;10.066;2023-07-29T06:31:48;15.80;93.50
5134;DHT22;2585;48.696;10.066;2023-07-29T06:34:15;15.80;93.50
5134;DHT22;2585;48.696;10.066;2023-07-29T06:36:42;15.90;93.60
5134;DHT22;2585;48.696;10.066;2023-07-29T06:39:09;15.90;93.60
5134;DHT22;2585;48.696;10.066;2023-07-29T06:41:36;16.00;93.60
5134;DHT22;2585;48.696;10.066;2023-07-29T06:44:03;16.00;93.60
5134;DHT22;2585;48.696;10.066;2023-07-29T06:46:30;16.20;93.70
5134;DHT22;2585;48.696;10.066;2023-07-29T06:48:57;16.50;93.70
5134;DHT22;2585;48.696;10.066;2023-07-29T06:51:24;16.90;93.80
5134;DHT22;2585;48.696;10.066;2023-07-29T06:53:51;17.10;93.90
5134;DHT22;2585;48.696;10.066;2023-07-29T06:56:17;17.30;94.00
5134;DHT22;2585;48.696;10.066;2023-07-29T06:58:44;17.50;94.00
5134;DHT22;2585;48.696;10.066;2023-07-29T07:01:11;17.60;94.00
5134;DHT22;2585;48.696;10.066;2023-07-29T07:03:38;17.80;94.10
5134;DHT22;2585;48.696;10.066;2023-07-29T07:06:05;17.80;94.10
5134;DHT22;2585;48.696;10.066;2023-07-29T07:08:32;17.90;94.10
5134;DHT22;2585;48.696;10.066;2023-07-29T07:10:59;18.00;94.10
5134;DHT22;2585;48.696;10.066;2023-07-29T07:13:26;17.90;94.10
5134;DHT22;2585;48.696;10.066;2023-07-29T07:15:56;17.90;94.10
5134;DHT22;2585;48.696;10.066;2023-07-29T07:18:23;17.90;94.10
5134;DHT22;2585;48.696;10.066;2023-07-29T07:20:50;18.00;94.10
5134;DHT22;2585;48.696;10.066;2023-07-29T07:23:18;18.30;94.20
5134;DHT22;2585;48.696;10.066;2023-07-29T07:25:45;18.30;94.20
5134;DHT22;2585;48.696;10.066;2023-07-29T07:28:12;18.60;94.30
5134;DHT22;2585;48.696;10.066;2023-07-29T07:30:41;18.70;94.30
5134;DHT22;2585;48.696;10.066;2023-07-29T07:33:09;18.80;94.30
5134;DHT22;2585;48.696;10.066;2023-07-29T07:35:36;18.90;94.30
5134;DHT22;2585;48.696;10.066;2023-07-29T07:38:03;19.00;94.30
5134;DHT22;2585;48.696;10.066;2023-07-29T07:40:33;19.00;94.30
5134;DHT22;2585;48.696;10.066;2023-07-29T07:43:00;19.20;94.40
5134;DHT22;2585;48.696;10.066;2023-07-29T07:45:27;19.20;94.40
5134;DHT22;2585;48.696;10.066;2023-07-29T07:47:54;19.10;94.30
5134;DHT22;2585;48.696;10.066;2023-07-29T07:50:21;19.10;94.30
5134;DHT22;2585;48.696;10.066;2023-07-29T07:52:47;19.10;94.30
5134;DHT22;2585;48.696;10.066;2023-07-29T07:55:14;19.00;94.30
5134;DHT22;2585;48.696;10.066;2023-07-29T07:57:41;19.00;94.30
5134;DHT22;2585;48.696;10.066;2023-07-29T08:00:08;18.80;94.30
5134;DHT22;2585;48.696;10.066;2023-07-29T08:02:36;18.50;94.20
5134;DHT22;2585;48.696;10.066;2023-07-29T08:05:03;18.40;94.20
5134;DHT22;2585;48.696;10.066;2023-07-29T08:07:30;18.10;94.10
5134;DHT22;2585;48.696;10.066;2023-07-29T08:09:57;18.00;94.10
5134;DHT22;2585;48.696;10.066;2023-07-29T08:12:24;17.70;94.00
5134;DHT22;2585;48.696;10.066;2023-07-29T08:14:51;17.60;93.90
5134;DHT22;2585;48.696;10.066;2023-07-29T08:17:18;17.40;93.80
5134;DHT22;2585;48.696;10.066;2023-07-29T08:19:45;17.30;93.80
5134;DHT22;2585;48.696;10.066;2023-07-29T08:22:11;17.30;93.80
5134;DHT22;2585;48.696;10.066;2023-07-29T08:24:38;17.20;93.80
5134;DHT22;2585;48.696;10.066;2023-07-29T08:27:05;17.30;93.80
5134;DHT22;2585;48.696;10.066;2023-07-29T08:29:32;17.40;93.90
5134;DHT22;2585;48.696;10.066;2023-07-29T08:31:59;17.80;94.00
5134;DHT22;2585;48.696;10.066;2023-07-29T08:34:26;18.10;94.10
5134;DHT22;2585;48.696;10.066;2023-07-29T08:36:53;18.30;94.10
5134;DHT22;2585;48.696;10.066;2023-07-29T08:39:20;18.30;94.10
5134;DHT22;2585;48.696;10.066;2023-07-29T08:41:51;18.20;94.00
5134;DHT22;2585;48.696;10.066;2023-07-29T08:44:21;18.40;94.10
5134;DHT22;2585;48.696;10.066;2023-07-29T08:46:52;18.60;94.20
5134;DHT22;2585;48.696;10.066;2023-07-29T08:49:21;18.70;94.10
5134;DHT22;2585;48.696;10.066;2023-07-29T08:51:51;18.80;94.20
5134;DHT22;2585;48.696;10.066;2023-07-29T08:54:20;18.70;94.10
5134;DHT22;2585;48.696;10.066;2023-07-29T08:56:46;18.40;94.00
5134;DHT22;2585;48.696;10.066;2023-07-29T08:59:14;18.40;94.00
5134;DHT22;2585;48.696;10.066;2023-07-29T09:01:43;18.70;94.10
5134;DHT22;2585;48.696;10.066;2023-07-29T09:04:10;19.10;94.30
5134;DHT22;2585;48.696;10.066;2023-07-29T09:06:37;19.10;94.20
5134;DHT22;2585;48.696;10.066;2023-07-29T09:09:07;19.40;94.30
5134;DHT22;2585;48.696;10.066;2023-07-29T09:11:35;19.60;94.40
5134;DHT22;2585;48.696;10.066;2023-07-29T09:14:02;19.40;94.30
5134;DHT22;2585;48.696;10.066;2023-07-29T09:16:29;19.60;94.30
5134;DHT22;2585;48.696;10.066;2023-07-29T09:19:01;19.90;94.40
5134;DHT22;2585;48.696;10.066;2023-07-29T09:21:28;19.80;94.40
5134;DHT22;2585;48.696;10.066;2023-07-29T09:23:55;19.70;94.30
5134;DHT22;2585;48.696;10.066;2023-07-29T09:26:24;19.70;94.30
5134;DHT22;2585;48.696;10.066;2023-07-29T09:28:53;19.50;94.20
5134;DHT22;2585;48.696;10.066;2023-07-29T09:31:22;19.40;94.20
5134;DHT22;2585;48.696;10.066;2023-07-29T09:33:49;19.30;94.20
5134;DHT22;2585;48.696;10.066;2023-07-29T09:36:17;19.30;94.20
5134;DHT22;2585;48.696;10.066;2023-07-29T09:38:44;19.20;94.20
5134;DHT22;2585;48.696;10.066;2023-07-29T09:41:13;19.10;94.20
5134;DHT22;2585;48.696;10.066;2023-07-29T09:43:40;19.10;94.20
5134;DHT22;2585;48.696;10.066;2023-07-29T09:46:07;19.00;94.20
5134;DHT22;2585;48.696;10.066;2023-07-29T09:48:35;19.10;94.20
5134;DHT22;2585;48.696;10.066;2023-07-29T09:51:13;19.20;94.20
5134;DHT22;2585;48.696;10.066;2023-07-29T09:53:44;19.20;94.20
5134;DHT22;2585;48.696;10.066;2023-07-29T09:56:14;19.40;94.30
5134;DHT22;2585;48.696;10.066;2023-07-29T09:58:43;19.50;94.30
5134;DHT22;2585;48.696;10.066;2023-07-29T10:01:12;19.60;94.30
5134;DHT22;2585;48.696;10.066;2023-07-29T10:03:39;19.70;94.30
5134;DHT22;2585;48.696;10.066;2023-07-29T10:06:07;19.90;94.40
5134;DHT22;2585;48.696;10.066;2023-07-29T10:08:34;20.30;94.50
5134;DHT22;2585;48.696;10.066;2023-07-29T10:11:07;20.60;94.50
5134;DHT22;2585;48.696;10.066;2023-07-29T10:13:37;20.70;94.40
5134;DHT22;2585;48.696;10.066;2023-07-29T10:16:04;21.00;94.50
5134;DHT22;2585;48.696;10.066;2023-07-29T10:18:33;21.70;94.50
5134;DHT22;2585;48.696;10.066;2023-07-29T10:21:01;22.40;94.60
5134;DHT22;2585;48.696;10.066;2023-07-29T10:23:38;22.70;93.30
5134;DHT22;2585;48.696;10.066;2023-07-29T10:26:10;22.80;93.30
5134;DHT22;2585;48.696;10.066;2023-07-29T10:28:40;23.10;92.50
5134;DHT22;2585;48.696;10.066;2023-07-29T10:31:08;23.50;92.40
5134;DHT22;2585;48.696;10.066;2023-07-29T10:33:37;23.40;87.10
5134;DHT22;2585;48.696;10.066;2023-07-29T10:36:05;23.30;90.50
5134;DHT22;2585;48.696;10.066;2023-07-29T10:38:32;23.10;85.30
5134;DHT22;2585;48.696;10.066;2023-07-29T10:40:59;23.30;82.30
5134;DHT22;2585;48.696;10.066;2023-07-29T10:43:34;22.90;67.80
5134;DHT22;2585;48.696;10.066;2023-07-29T10:46:20;23.10;81.60
5134;DHT22;2585;48.696;10.066;2023-07-29T10:54:04;23.80;1.00
5134;DHT22;2585;48.696;10.066;2023-07-29T10:56:40;22.90;1.00
5134;DHT22;2585;48.696;10.066;2023-07-29T11:01:58;23.60;64.10
5134;DHT22;2585;48.696;10.066;2023-07-29T11:04:26;24.30;60.00
5134;DHT22;2585;48.696;10.066;2023-07-29T11:09:41;24.10;22.50
5134;DHT22;2585;48.696;10.066;2023-07-29T11:17:39;25.90;65.60
5134;DHT22;2585;48.696;10.066;2023-07-29T11:20:07;25.60;1.00
5134;DHT22;2585;48.696;10.066;2023-07-29T11:22:35;25.10;1.00
5134;DHT22;2585;48.696;10.066;2023-07-29T11:25:03;25.70;91.20
5134;DHT22;2585;48.696;10.066;2023-07-29T11:27:30;25.90;84.30
5134;DHT22;2585;48.696;10.066;2023-07-29T11:30:02;25.20;1.00
5134;DHT22;2585;48.696;10.066;2023-07-29T11:32:29;25.40;1.00
5134;DHT22;2585;48.696;10.066;2023-07-29T11:34:56;25.70;1.00
5134;DHT22;2585;48.696;10.066;2023-07-29T11:37:23;25.60;1.00
5134;DHT22;2585;48.696;10.066;2023-07-29T11:39:50;26.10;74.80
5134;DHT22;2585;48.696;10.066;2023-07-29T11:42:17;26.00;1.00
5134;DHT22;2585;48.696;10.066;2023-07-29T11:44:45;25.90;1.00
5134;DHT22;2585;48.696;10.066;2023-07-29T11:47:12;26.00;93.30
5134;DHT22;2585;48.696;10.066;2023-07-29T11:49:40;25.70;78.70
5134;DHT22;2585;48.696;10.066;2023-07-29T11:52:10;24.30;81.70
5134;DHT22;2585;48.696;10.066;2023-07-29T11:54:38;24.10;1.00
5134;DHT22;2585;48.696;10.066;2023-07-29T11:57:09;24.00;1.00
5134;DHT22;2585;48.696;10.066;2023-07-29T11:59:37;23.20;50.40
5134;DHT22;2585;48.696;10.066;2023-07-29T12:02:13;23.20;1.00
5134;DHT22;2585;48.696;10.066;2023-07-29T12:04:41;22.80;1.00
5134;DHT22;2585;48.696;10.066;2023-07-29T12:07:10;23.00;50.30
5134;DHT22;2585;48.696;10.066;2023-07-29T12:09:37;23.00;89.30
5134;DHT22;2585;48.696;10.066;2023-07-29T12:12:05;23.60;33.90
5134;DHT22;2585;48.696;10.066;2023-07-29T12:14:33;24.20;90.40
5134;DHT22;2585;48.696;10.066;2023-07-29T12:17:02;24.10;90.00
5134;DHT22;2585;48.696;10.066;2023-07-29T12:19:36;23.70;62.00
5134;DHT22;2585;48.696;10.066;2023-07-29T12:22:04;24.40;1.00
5134;DHT22;2585;48.696;10.066;2023-07-29T12:24:32;25.00;1.00
5134;DHT22;2585;48.696;10.066;2023-07-29T12:27:00;25.30;48.60
5134;DHT22;2585;48.696;10.066;2023-07-29T12:29:27;25.00;1.00
5134;DHT22;2585;48.696;10.066;2023-07-29T12:32:02;25.00;92.70
5134;DHT22;2585;48.696;10.066;2023-07-29T12:34:30;25.70;1.00
5134;DHT22;2585;48.696;10.066;2023-07-29T12:36:58;26.50;61.80
5134;DHT22;2585;48.696;10.066;2023-07-29T12:39:27;26.90;61.80
5134;DHT22;2585;48.696;10.066;2023-07-29T12:41:56;27.00;1.00
5134;DHT22;2585;48.696;10.066;2023-07-29T12:44:24;27.10;1.00
5134;DHT22;2585;48.696;10.066;2023-07-29T12:46:52;26.60;82.00
5134;DHT22;2585;48.696;10.066;2023-07-29T12:49:18;26.70;82.70
5134;DHT22;2585;48.696;10.066;2023-07-29T12:51:46;26.20;64.90
5134;DHT22;2585;48.696;10.066;2023-07-29T12:54:13;25.60;82.30
5134;DHT22;2585;48.696;10.066;2023-07-29T12:56:40;25.20;91.00
5134;DHT22;2585;48.696;10.066;2023-07-29T12:59:07;24.70;1.00
5134;DHT22;2585;48.696;10.066;2023-07-29T13:01:33;25.30;66.50
5134;DHT22;2585;48.696;10.066;2023-07-29T13:04:00;26.20;77.00
5134;DHT22;2585;48.696;10.066;2023-07-29T13:06:27;26.50;1.00
5134;DHT22;2585;48.696;10.066;2023-07-29T13:08:57;26.50;94.20
5134;DHT22;2585;48.696;10.066;2023-07-29T13:11:24;26.00;74.90
5134;DHT22;2585;48.696;10.066;2023-07-29T13:13:51;25.50;70.90
5134;DHT22;2585;48.696;10.066;2023-07-29T13:16:18;25.50;73.20
5134;DHT22;2585;48.696;10.066;2023-07-29T13:18:45;25.50;75.60
5134;DHT22;2585;48.696;10.066;2023-07-29T13:21:12;25.20;1.00
5134;DHT22;2585;48.696;10.066;2023-07-29T13:23:38;25.00;1.00
5134;DHT22;2585;48.696;10.066;2023-07-29T13:26:05;25.00;1.00
5134;DHT22;2585;48.696;10.066;2023-07-29T13:28:32;24.90;1.00
5134;DHT22;2585;48.696;10.066;2023-07-29T13:30:59;24.90;1.00
5134;DHT22;2585;48.696;10.066;2023-07-29T13:33:26;24.60;1.00
5134;DHT22;2585;48.696;10.066;2023-07-29T13:35:53;24.30;1.00
5134;DHT22;2585;48.696;10.066;2023-07-29T13:38:20;24.20;1.00
5134;DHT22;2585;48.696;10.066;2023-07-29T13:40:47;23.80;1.00
5134;DHT22;2585;48.696;10.066;2023-07-29T13:43:14;23.80;66.70
5134;DHT22;2585;48.696;10.066;2023-07-29T13:45:41;23.90;1.00
5134;DHT22;2585;48.696;10.066;2023-07-29T13:48:08;23.80;1.00
5134;DHT22;2585;48.696;10.066;2023-07-29T13:50:35;24.20;71.70
5134;DHT22;2585;48.696;10.066;2023-07-29T13:53:01;24.40;58.70
5134;DHT22;2585;48.696;10.066;2023-07-29T13:55:28;24.60;90.30
5134;DHT22;2585;48.696;10.066;2023-07-29T13:57:55;25.00;60.30
5134;DHT22;2585;48.696;10.066;2023-07-29T14:00:22;25.40;1.00
5134;DHT22;2585;48.696;10.066;2023-07-29T14:02:49;25.80;78.20
5134;DHT22;2585;48.696;10.066;2023-07-29T14:05:16;25.50;3.50
5134;DHT22;2585;48.696;10.066;2023-07-29T14:07:43;25.50;1.00
5134;DHT22;2585;48.696;10.066;2023-07-29T14:10:09;25.50;95.80
5134;DHT22;2585;48.696;10.066;2023-07-29T14:12:36;25.10;94.00
5134;DHT22;2585;48.696;10.066;2023-07-29T14:15:04;24.80;1.00
5134;DHT22;2585;48.696;10.066;2023-07-29T14:17:32;25.10;1.00
5134;DHT22;2585;48.696;10.066;2023-07-29T14:19:58;25.10;77.90
5134;DHT22;2585;48.696;10.066;2023-07-29T14:22:25;25.10;1.00
5134;DHT22;2585;48.696;10.066;2023-07-29T14:24:52;25.30;1.00
5134;DHT22;2585;48.696;10.066;2023-07-29T14:27:19;25.00;1.00
5134;DHT22;2585;48.696;10.066;2023-07-29T14:29:46;24.70;1.00
5134;DHT22;2585;48.696;10.066;2023-07-29T14:32:13;24.60;1.00
5134;DHT22;2585;48.696;10.066;2023-07-29T14:34:39;24.50;1.00
5134;DHT22;2585;48.696;10.066;2023-07-29T14:37:06;24.60;1.00
5134;DHT22;2585;48.696;10.066;2023-07-29T14:39:33;24.70;1.00
5134;DHT22;2585;48.696;10.066;2023-07-29T14:42:00;24.80;1.00
5134;DHT22;2585;48.696;10.066;2023-07-29T14:44:27;24.80;1.00
5134;DHT22;2585;48.696;10.066;2023-07-29T14:46:54;24.70;1.00
5134;DHT22;2585;48.696;10.066;2023-07-29T14:49:21;24.50;1.00
5134;DHT22;2585;48.696;10.066;2023-07-29T14:51:48;24.50;1.00
5134;DHT22;2585;48.696;10.066;2023-07-29T14:54:15;24.60;1.00
5134;DHT22;2585;48.696;10.066;2023-07-29T14:56:42;24.80;1.00
5134;DHT22;2585;48.696;10.066;2023-07-29T14:59:09;24.60;1.00
5134;DHT22;2585;48.696;10.066;2023-07-29T15:01:36;24.50;1.00
5134;DHT22;2585;48.696;10.066;2023-07-29T15:04:03;24.90;1.00
5134;DHT22;2585;48.696;10.066;2023-07-29T15:06:30;25.00;1.00
5134;DHT22;2585;48.696;10.066;2023-07-29T15:08:57;24.50;82.50
5134;DHT22;2585;48.696;10.066;2023-07-29T15:11:24;24.30;57.50
5134;DHT22;2585;48.696;10.066;2023-07-29T15:13:51;24.30;58.10
5134;DHT22;2585;48.696;10.066;2023-07-29T15:16:18;24.60;26.30
5134;DHT22;2585;48.696;10.066;2023-07-29T15:18:45;25.20;61.90
5134;DHT22;2585;48.696;10.066;2023-07-29T15:21:11;24.80;1.00
5134;DHT22;2585;48.696;10.066;2023-07-29T15:23:38;24.70;1.00
5134;DHT22;2585;48.696;10.066;2023-07-29T15:26:05;24.70;1.00
5134;DHT22;2585;48.696;10.066;2023-07-29T15:28:32;24.70;92.40
5134;DHT22;2585;48.696;10.066;2023-07-29T15:30:59;24.50;91.60
5134;DHT22;2585;48.696;10.066;2023-07-29T15:33:26;24.40;93.50
5134;DHT22;2585;48.696;10.066;2023-07-29T15:35:52;24.20;93.10
5134;DHT22;2585;48.696;10.066;2023-07-29T15:38:19;24.20;88.60
5134;DHT22;2585;48.696;10.066;2023-07-29T15:40:46;24.10;90.00
5134;DHT22;2585;48.696;10.066;2023-07-29T15:43:15;24.20;89.60
5134;DHT22;2585;48.696;10.066;2023-07-29T15:45:42;24.30;85.40
5134;DHT22;2585;48.696;10.066;2023-07-29T15:48:11;24.50;88.40
5134;DHT22;2585;48.696;10.066;2023-07-29T15:50:37;24.50;90.40
5134;DHT22;2585;48.696;10.066;2023-07-29T15:53:04;24.30;83.80
5134;DHT22;2585;48.696;10.066;2023-07-29T15:55:31;24.10;81.80
5134;DHT22;2585;48.696;10.066;2023-07-29T15:57:58;24.00;80.30
5134;DHT22;2585;48.696;10.066;2023-07-29T16:00:25;23.80;72.50
5134;DHT22;2585;48.696;10.066;2023-07-29T16:02:55;23.70;76.20
5134;DHT22;2585;48.696;10.066;2023-07-29T16:05:22;23.60;77.60
5134;DHT22;2585;48.696;10.066;2023-07-29T16:07:50;23.50;73.70
5134;DHT22;2585;48.696;10.066;2023-07-29T16:10:17;23.40;71.50
5134;DHT22;2585;48.696;10.066;2023-07-29T16:12:43;23.40;75.10